sensor_id;sensor_type;location;lat;lon;timestamp;P1;durP1;ratioP1;P2;durP2;ratioP2
15216;SDS011;7711;46.634;14.318;2022-09-01T00:02:29;10.93;;;8.57;;
15216;SDS011;7711;46.634;14.318;2022-09-01T00:04:56;9.27;;;8.38;;
15216;SDS011;7711;46.634;14.318;2022-09-01T00:07:24;10.07;;;9.07;;
15216;SDS011;7711;46.634;14.318;2022-09-01T00:09:54;9.85;;;8.18;;
15216;SDS011;7711;46.634;14.318;2022-09-01T00:12:23;9.00;;;7.80;;
15216;SDS011;7711;46.634;14.318;2022-09-01T00:14:50;8.50;;;7.70;;
15216;SDS011;7711;46.634;14.318;2022-09-01T00:17:21;9.15;;;8.35;;
15216;SDS011;7711;46.634;14.318;2022-09-01T00:19:51;8.90;;;8.10;;
15216;SDS011;7711;46.634;14.318;2022-09-01T00:22:21;8.82;;;7.97;;
15216;SDS011;7711;46.634;14.318;2022-09-01T00:24:48;9.43;;;8.20;;
15216;SDS011;7711;46.634;14.318;2022-09-01T00:27:18;8.45;;;7.63;;
15216;SDS011;7711;46.634;14.318;2022-09-01T00:29:51;9.10;;;8.30;;
15216;SDS011;7711;46.634;14.318;2022-09-01T00:32:20;8.75;;;7.85;;
15216;SDS011;7711;46.634;14.318;2022-09-01T00:34:52;9.00;;;8.18;;
15216;SDS011;7711;46.634;14.318;2022-09-01T00:37:19;9.55;;;8.57;;
15216;SDS011;7711;46.634;14.318;2022-09-01T00:39:47;9.30;;;8.48;;
15216;SDS011;7711;46.634;14.318;2022-09-01T00:42:16;8.95;;;8.05;;
15216;SDS011;7711;46.634;14.318;2022-09-01T00:44:48;8.32;;;7.53;;
15216;SDS011;7711;46.634;14.318;2022-09-01T00:47:16;9.18;;;8.35;;
15216;SDS011;7711;46.634;14.318;2022-09-01T00:49:46;8.45;;;7.75;;
15216;SDS011;7711;46.634;14.318;2022-09-01T00:52:18;10.25;;;7.85;;
15216;SDS011;7711;46.634;14.318;2022-09-01T00:54:52;9.20;;;8.30;;
15216;SDS011;7711;46.634;14.318;2022-09-01T00:57:26;9.25;;;8.27;;
15216;SDS011;7711;46.634;14.318;2022-09-01T01:00:00;9.82;;;8.57;;
15216;SDS011;7711;46.634;14.318;2022-09-01T01:02:31;9.40;;;8.50;;
15216;SDS011;7711;46.634;14.318;2022-09-01T01:05:00;9.40;;;8.25;;
15216;SDS011;7711;46.634;14.318;2022-09-01T01:07:32;9.32;;;8.52;;
15216;SDS011;7711;46.634;14.318;2022-09-01T01:10:03;9.18;;;7.95;;
15216;SDS011;7711;46.634;14.318;2022-09-01T01:12:32;9.05;;;8.25;;
15216;SDS011;7711;46.634;14.318;2022-09-01T01:15:02;9.38;;;8.40;;
15216;SDS011;7711;46.634;14.318;2022-09-01T01:17:31;9.77;;;8.77;;
15216;SDS011;7711;46.634;14.318;2022-09-01T01:20:00;8.48;;;7.75;;
15216;SDS011;7711;46.634;14.318;2022-09-01T01:22:54;10.38;;;8.90;;
15216;SDS011;7711;46.634;14.318;2022-09-01T01:25:34;11.15;;;8.70;;
15216;SDS011;7711;46.634;14.318;2022-09-01T01:28:11;8.93;;;7.90;;
15216;SDS011;7711;46.634;14.318;2022-09-01T01:30:45;10.15;;;9.15;;
15216;SDS011;7711;46.634;14.318;2022-09-01T01:33:16;8.95;;;8.15;;
15216;SDS011;7711;46.634;14.318;2022-09-01T01:35:44;10.38;;;9.38;;
15216;SDS011;7711;46.634;14.318;2022-09-01T01:38:13;10.25;;;9.25;;
15216;SDS011;7711;46.634;14.318;2022-09-01T01:40:42;9.85;;;8.68;;
15216;SDS011;7711;46.634;14.318;2022-09-01T01:43:12;9.63;;;8.65;;
15216;SDS011;7711;46.634;14.318;2022-09-01T01:45:46;10.80;;;9.63;;
15216;SDS011;7711;46.634;14.318;2022-09-01T01:48:19;11.05;;;10.05;;
15216;SDS011;7711;46.634;14.318;2022-09-01T01:50:50;9.25;;;8.45;;
15216;SDS011;7711;46.634;14.318;2022-09-01T01:53:19;9.45;;;8.43;;
15216;SDS011;7711;46.634;14.318;2022-09-01T01:55:48;10.00;;;9.00;;
15216;SDS011;7711;46.634;14.318;2022-09-01T01:58:16;10.10;;;9.10;;
15216;SDS011;7711;46.634;14.318;2022-09-01T02:00:46;9.70;;;8.80;;
15216;SDS011;7711;46.634;14.318;2022-09-01T02:03:17;9.63;;;8.70;;
15216;SDS011;7711;46.634;14.318;2022-09-01T02:05:47;10.55;;;9.02;;
15216;SDS011;7711;46.634;14.318;2022-09-01T02:08:17;10.18;;;9.07;;
15216;SDS011;7711;46.634;14.318;2022-09-01T02:10:52;9.60;;;8.68;;
15216;SDS011;7711;46.634;14.318;2022-09-01T02:13:22;9.63;;;8.82;;
15216;SDS011;7711;46.634;14.318;2022-09-01T02:15:55;10.85;;;9.40;;
15216;SDS011;7711;46.634;14.318;2022-09-01T02:18:25;10.13;;;9.13;;
15216;SDS011;7711;46.634;14.318;2022-09-01T02:20:57;10.35;;;9.35;;
15216;SDS011;7711;46.634;14.318;2022-09-01T02:23:26;10.55;;;9.45;;
15216;SDS011;7711;46.634;14.318;2022-09-01T02:25:56;9.05;;;8.27;;
15216;SDS011;7711;46.634;14.318;2022-09-01T02:28:30;9.55;;;8.60;;
15216;SDS011;7711;46.634;14.318;2022-09-01T02:31:01;9.90;;;9.00;;
15216;SDS011;7711;46.634;14.318;2022-09-01T02:33:33;9.23;;;8.32;;
15216;SDS011;7711;46.634;14.318;2022-09-01T02:36:04;10.10;;;9.10;;
15216;SDS011;7711;46.634;14.318;2022-09-01T02:38:36;11.02;;;10.02;;
15216;SDS011;7711;46.634;14.318;2022-09-01T02:41:11;10.50;;;9.50;;
15216;SDS011;7711;46.634;14.318;2022-09-01T02:43:39;9.48;;;8.68;;
15216;SDS011;7711;46.634;14.318;2022-09-01T02:46:12;9.30;;;8.40;;
15216;SDS011;7711;46.634;14.318;2022-09-01T02:48:45;11.07;;;9.30;;
15216;SDS011;7711;46.634;14.318;2022-09-01T02:51:16;9.27;;;8.38;;
15216;SDS011;7711;46.634;14.318;2022-09-01T02:53:49;9.38;;;8.48;;
15216;SDS011;7711;46.634;14.318;2022-09-01T02:56:21;9.15;;;8.32;;
15216;SDS011;7711;46.634;14.318;2022-09-01T02:58:56;9.40;;;8.48;;
15216;SDS011;7711;46.634;14.318;2022-09-01T03:01:27;8.82;;;8.02;;
15216;SDS011;7711;46.634;14.318;2022-09-01T03:03:59;9.15;;;8.23;;
15216;SDS011;7711;46.634;14.318;2022-09-01T03:06:30;9.23;;;8.43;;
15216;SDS011;7711;46.634;14.318;2022-09-01T03:09:02;9.55;;;8.18;;
15216;SDS011;7711;46.634;14.318;2022-09-01T03:11:32;9.68;;;8.13;;
15216;SDS011;7711;46.634;14.318;2022-09-01T03:14:06;7.47;;;6.78;;
15216;SDS011;7711;46.634;14.318;2022-09-01T03:16:35;7.32;;;6.63;;
15216;SDS011;7711;46.634;14.318;2022-09-01T03:19:07;7.15;;;6.55;;
15216;SDS011;7711;46.634;14.318;2022-09-01T03:21:39;7.15;;;6.45;;
15216;SDS011;7711;46.634;14.318;2022-09-01T03:24:11;6.65;;;6.05;;
15216;SDS011;7711;46.634;14.318;2022-09-01T03:26:45;6.82;;;6.22;;
15216;SDS011;7711;46.634;14.318;2022-09-01T03:29:14;7.10;;;6.50;;
15216;SDS011;7711;46.634;14.318;2022-09-01T03:31:41;6.03;;;5.53;;
15216;SDS011;7711;46.634;14.318;2022-09-01T03:34:12;6.28;;;5.68;;
15216;SDS011;7711;46.634;14.318;2022-09-01T03:36:40;6.35;;;5.75;;
15216;SDS011;7711;46.634;14.318;2022-09-01T03:39:16;6.18;;;5.57;;
15216;SDS011;7711;46.634;14.318;2022-09-01T03:41:45;6.40;;;5.80;;
15216;SDS011;7711;46.634;14.318;2022-09-01T03:44:13;6.75;;;5.80;;
15216;SDS011;7711;46.634;14.318;2022-09-01T03:46:47;6.80;;;6.20;;
15216;SDS011;7711;46.634;14.318;2022-09-01T03:49:18;8.82;;;6.20;;
15216;SDS011;7711;46.634;14.318;2022-09-01T03:51:51;5.88;;;5.38;;
15216;SDS011;7711;46.634;14.318;2022-09-01T03:54:19;5.82;;;5.32;;
15216;SDS011;7711;46.634;14.318;2022-09-01T03:56:52;6.68;;;5.72;;
15216;SDS011;7711;46.634;14.318;2022-09-01T03:59:21;8.02;;;5.97;;
15216;SDS011;7711;46.634;14.318;2022-09-01T04:01:49;6.28;;;5.72;;
15216;SDS011;7711;46.634;14.318;2022-09-01T04:04:22;6.35;;;5.85;;
15216;SDS011;7711;46.634;14.318;2022-09-01T04:06:50;6.95;;;6.32;;
15216;SDS011;7711;46.634;14.318;2022-09-01T04:09:17;7.95;;;6.13;;
15216;SDS011;7711;46.634;14.318;2022-09-01T04:11:48;6.47;;;5.75;;
15216;SDS011;7711;46.634;14.318;2022-09-01T04:14:18;6.30;;;5.68;;
15216;SDS011;7711;46.634;14.318;2022-09-01T04:16:45;7.50;;;5.60;;
15216;SDS011;7711;46.634;14.318;2022-09-01T04:19:35;9.10;;;5.70;;
15216;SDS011;7711;46.634;14.318;2022-09-01T04:22:04;6.78;;;6.15;;
15216;SDS011;7711;46.634;14.318;2022-09-01T04:24:32;7.05;;;6.35;;
15216;SDS011;7711;46.634;14.318;2022-09-01T04:27:03;6.95;;;6.32;;
15216;SDS011;7711;46.634;14.318;2022-09-01T04:29:33;7.72;;;6.32;;
15216;SDS011;7711;46.634;14.318;2022-09-01T04:32:02;6.80;;;5.88;;
15216;SDS011;7711;46.634;14.318;2022-09-01T04:34:33;6.68;;;6.07;;
15216;SDS011;7711;46.634;14.318;2022-09-01T04:37:05;6.28;;;5.68;;
15216;SDS011;7711;46.634;14.318;2022-09-01T04:39:40;8.43;;;6.10;;
15216;SDS011;7711;46.634;14.318;2022-09-01T04:42:14;6.90;;;6.20;;
15216;SDS011;7711;46.634;14.318;2022-09-01T04:44:43;7.25;;;6.35;;
15216;SDS011;7711;46.634;14.318;2022-09-01T04:47:13;6.88;;;6.20;;
15216;SDS011;7711;46.634;14.318;2022-09-01T04:49:41;6.45;;;5.80;;
15216;SDS011;7711;46.634;14.318;2022-09-01T04:52:09;6.43;;;5.93;;
15216;SDS011;7711;46.634;14.318;2022-09-01T04:54:37;6.97;;;6.00;;
15216;SDS011;7711;46.634;14.318;2022-09-01T04:57:05;8.23;;;6.50;;
15216;SDS011;7711;46.634;14.318;2022-09-01T04:59:37;6.93;;;6.22;;
15216;SDS011;7711;46.634;14.318;2022-09-01T05:02:04;6.80;;;6.10;;
15216;SDS011;7711;46.634;14.318;2022-09-01T05:04:33;8.85;;;6.18;;
15216;SDS011;7711;46.634;14.318;2022-09-01T05:07:03;7.22;;;6.50;;
15216;SDS011;7711;46.634;14.318;2022-09-01T05:09:33;6.70;;;6.10;;
15216;SDS011;7711;46.634;14.318;2022-09-01T05:12:05;6.82;;;6.22;;
15216;SDS011;7711;46.634;14.318;2022-09-01T05:14:42;7.38;;;6.60;;
15216;SDS011;7711;46.634;14.318;2022-09-01T05:17:13;7.30;;;6.60;;
15216;SDS011;7711;46.634;14.318;2022-09-01T05:19:42;7.32;;;6.60;;
15216;SDS011;7711;46.634;14.318;2022-09-01T05:22:11;6.63;;;6.05;;
15216;SDS011;7711;46.634;14.318;2022-09-01T05:24:39;7.25;;;6.10;;
15216;SDS011;7711;46.634;14.318;2022-09-01T05:27:07;7.55;;;6.13;;
15216;SDS011;7711;46.634;14.318;2022-09-01T05:29:37;6.28;;;5.47;;
15216;SDS011;7711;46.634;14.318;2022-09-01T05:32:07;6.70;;;6.10;;
15216;SDS011;7711;46.634;14.318;2022-09-01T05:34:37;6.18;;;5.65;;
15216;SDS011;7711;46.634;14.318;2022-09-01T05:37:06;6.97;;;6.28;;
15216;SDS011;7711;46.634;14.318;2022-09-01T05:39:37;8.45;;;5.70;;
15216;SDS011;7711;46.634;14.318;2022-09-01T05:42:05;8.40;;;5.55;;
15216;SDS011;7711;46.634;14.318;2022-09-01T05:44:32;5.40;;;4.90;;
15216;SDS011;7711;46.634;14.318;2022-09-01T05:47:00;6.13;;;5.20;;
15216;SDS011;7711;46.634;14.318;2022-09-01T05:49:34;5.80;;;5.15;;
15216;SDS011;7711;46.634;14.318;2022-09-01T05:52:03;6.15;;;5.15;;
15216;SDS011;7711;46.634;14.318;2022-09-01T05:54:35;6.10;;;5.60;;
15216;SDS011;7711;46.634;14.318;2022-09-01T05:57:04;5.70;;;5.20;;
15216;SDS011;7711;46.634;14.318;2022-09-01T05:59:32;6.10;;;5.50;;
15216;SDS011;7711;46.634;14.318;2022-09-01T06:01:59;6.00;;;5.40;;
15216;SDS011;7711;46.634;14.318;2022-09-01T06:04:27;7.40;;;5.72;;
15216;SDS011;7711;46.634;14.318;2022-09-01T06:06:59;6.13;;;5.53;;
15216;SDS011;7711;46.634;14.318;2022-09-01T06:09:27;6.30;;;5.70;;
15216;SDS011;7711;46.634;14.318;2022-09-01T06:11:54;6.63;;;5.93;;
15216;SDS011;7711;46.634;14.318;2022-09-01T06:14:28;6.32;;;5.72;;
15216;SDS011;7711;46.634;14.318;2022-09-01T06:16:55;6.43;;;5.82;;
15216;SDS011;7711;46.634;14.318;2022-09-01T06:19:23;6.70;;;6.05;;
15216;SDS011;7711;46.634;14.318;2022-09-01T06:21:53;6.57;;;5.97;;
15216;SDS011;7711;46.634;14.318;2022-09-01T06:24:22;6.18;;;5.65;;
15216;SDS011;7711;46.634;14.318;2022-09-01T06:26:49;7.18;;;6.22;;
15216;SDS011;7711;46.634;14.318;2022-09-01T06:29:19;7.50;;;6.90;;
15216;SDS011;7711;46.634;14.318;2022-09-01T06:31:47;6.47;;;5.97;;
15216;SDS011;7711;46.634;14.318;2022-09-01T06:34:15;6.78;;;6.18;;
15216;SDS011;7711;46.634;14.318;2022-09-01T06:36:46;7.13;;;6.43;;
15216;SDS011;7711;46.634;14.318;2022-09-01T06:39:18;6.53;;;6.03;;
15216;SDS011;7711;46.634;14.318;2022-09-01T06:41:47;6.72;;;6.13;;
15216;SDS011;7711;46.634;14.318;2022-09-01T06:44:17;7.50;;;5.90;;
15216;SDS011;7711;46.634;14.318;2022-09-01T06:46:49;6.80;;;6.20;;
15216;SDS011;7711;46.634;14.318;2022-09-01T06:49:17;6.05;;;5.50;;
15216;SDS011;7711;46.634;14.318;2022-09-01T06:51:45;6.75;;;6.13;;
15216;SDS011;7711;46.634;14.318;2022-09-01T06:54:13;8.02;;;5.53;;
15216;SDS011;7711;46.634;14.318;2022-09-01T06:56:43;6.63;;;5.93;;
15216;SDS011;7711;46.634;14.318;2022-09-01T06:59:12;6.03;;;5.43;;
15216;SDS011;7711;46.634;14.318;2022-09-01T07:01:39;5.93;;;5.38;;
15216;SDS011;7711;46.634;14.318;2022-09-01T07:04:07;5.75;;;5.25;;
15216;SDS011;7711;46.634;14.318;2022-09-01T07:06:34;5.47;;;4.97;;
15216;SDS011;7711;46.634;14.318;2022-09-01T07:09:04;6.55;;;5.47;;
15216;SDS011;7711;46.634;14.318;2022-09-01T07:11:33;5.63;;;5.13;;
15216;SDS011;7711;46.634;14.318;2022-09-01T07:14:01;6.35;;;5.80;;
15216;SDS011;7711;46.634;14.318;2022-09-01T07:16:33;6.40;;;5.40;;
15216;SDS011;7711;46.634;14.318;2022-09-01T07:19:01;6.13;;;5.63;;
15216;SDS011;7711;46.634;14.318;2022-09-01T07:21:30;6.53;;;5.40;;
15216;SDS011;7711;46.634;14.318;2022-09-01T07:24:03;5.63;;;5.13;;
15216;SDS011;7711;46.634;14.318;2022-09-01T07:26:31;6.85;;;5.10;;
15216;SDS011;7711;46.634;14.318;2022-09-01T07:29:00;5.10;;;4.70;;
15216;SDS011;7711;46.634;14.318;2022-09-01T07:31:31;5.30;;;4.90;;
15216;SDS011;7711;46.634;14.318;2022-09-01T07:34:03;6.30;;;5.70;;
15216;SDS011;7711;46.634;14.318;2022-09-01T07:36:36;6.35;;;5.10;;
15216;SDS011;7711;46.634;14.318;2022-09-01T07:39:05;5.53;;;5.03;;
15216;SDS011;7711;46.634;14.318;2022-09-01T07:41:34;5.82;;;5.22;;
15216;SDS011;7711;46.634;14.318;2022-09-01T07:44:06;5.65;;;4.90;;
15216;SDS011;7711;46.634;14.318;2022-09-01T07:46:39;5.38;;;4.80;;
15216;SDS011;7711;46.634;14.318;2022-09-01T07:49:10;5.50;;;5.00;;
15216;SDS011;7711;46.634;14.318;2022-09-01T07:51:37;6.85;;;4.90;;
15216;SDS011;7711;46.634;14.318;2022-09-01T07:54:04;7.03;;;5.38;;
15216;SDS011;7711;46.634;14.318;2022-09-01T07:56:34;6.03;;;5.05;;
15216;SDS011;7711;46.634;14.318;2022-09-01T07:59:01;5.68;;;5.10;;
15216;SDS011;7711;46.634;14.318;2022-09-01T08:01:32;5.45;;;4.95;;
15216;SDS011;7711;46.634;14.318;2022-09-01T08:04:03;7.25;;;4.90;;
15216;SDS011;7711;46.634;14.318;2022-09-01T08:06:30;6.13;;;5.10;;
15216;SDS011;7711;46.634;14.318;2022-09-01T08:09:00;5.38;;;4.97;;
15216;SDS011;7711;46.634;14.318;2022-09-01T08:11:28;5.50;;;4.90;;
15216;SDS011;7711;46.634;14.318;2022-09-01T08:13:56;5.18;;;4.68;;
15216;SDS011;7711;46.634;14.318;2022-09-01T08:16:24;6.95;;;5.15;;
15216;SDS011;7711;46.634;14.318;2022-09-01T08:18:55;5.47;;;4.97;;
15216;SDS011;7711;46.634;14.318;2022-09-01T08:21:25;4.75;;;4.35;;
15216;SDS011;7711;46.634;14.318;2022-09-01T08:23:53;5.80;;;5.20;;
15216;SDS011;7711;46.634;14.318;2022-09-01T08:26:21;5.47;;;4.95;;
15216;SDS011;7711;46.634;14.318;2022-09-01T08:28:51;5.07;;;4.63;;
15216;SDS011;7711;46.634;14.318;2022-09-01T08:31:20;4.90;;;4.50;;
15216;SDS011;7711;46.634;14.318;2022-09-01T08:33:51;5.18;;;4.68;;
15216;SDS011;7711;46.634;14.318;2022-09-01T08:36:23;5.10;;;4.65;;
15216;SDS011;7711;46.634;14.318;2022-09-01T08:38:51;5.90;;;5.30;;
15216;SDS011;7711;46.634;14.318;2022-09-01T08:41:22;5.00;;;4.60;;
15216;SDS011;7711;46.634;14.318;2022-09-01T08:44:00;5.13;;;4.63;;
15216;SDS011;7711;46.634;14.318;2022-09-01T08:46:36;5.38;;;4.88;;
15216;SDS011;7711;46.634;14.318;2022-09-01T08:49:07;5.55;;;4.88;;
15216;SDS011;7711;46.634;14.318;2022-09-01T08:51:41;7.55;;;4.72;;
15216;SDS011;7711;46.634;14.318;2022-09-01T08:54:14;4.88;;;4.20;;
15216;SDS011;7711;46.634;14.318;2022-09-01T08:56:46;4.60;;;4.20;;
15216;SDS011;7711;46.634;14.318;2022-09-01T08:59:17;4.95;;;4.53;;
15216;SDS011;7711;46.634;14.318;2022-09-01T09:01:47;5.15;;;4.47;;
15216;SDS011;7711;46.634;14.318;2022-09-01T09:04:24;4.65;;;4.25;;
15216;SDS011;7711;46.634;14.318;2022-09-01T09:07:06;5.03;;;4.45;;
15216;SDS011;7711;46.634;14.318;2022-09-01T09:09:43;6.85;;;4.55;;
15216;SDS011;7711;46.634;14.318;2022-09-01T09:12:24;4.45;;;4.05;;
15216;SDS011;7711;46.634;14.318;2022-09-01T09:15:09;5.15;;;3.90;;
15216;SDS011;7711;46.634;14.318;2022-09-01T09:17:44;5.70;;;4.40;;
15216;SDS011;7711;46.634;14.318;2022-09-01T09:20:16;5.72;;;4.40;;
15216;SDS011;7711;46.634;14.318;2022-09-01T09:22:45;4.53;;;4.13;;
15216;SDS011;7711;46.634;14.318;2022-09-01T09:25:15;3.97;;;3.60;;
15216;SDS011;7711;46.634;14.318;2022-09-01T09:27:44;4.55;;;3.85;;
15216;SDS011;7711;46.634;14.318;2022-09-01T09:30:13;4.72;;;3.97;;
15216;SDS011;7711;46.634;14.318;2022-09-01T09:32:47;3.90;;;3.60;;
15216;SDS011;7711;46.634;14.318;2022-09-01T09:35:18;4.85;;;4.20;;
15216;SDS011;7711;46.634;14.318;2022-09-01T09:37:54;4.18;;;3.78;;
15216;SDS011;7711;46.634;14.318;2022-09-01T09:40:22;4.40;;;3.97;;
15216;SDS011;7711;46.634;14.318;2022-09-01T09:43:01;4.45;;;4.15;;
15216;SDS011;7711;46.634;14.318;2022-09-01T09:45:31;4.13;;;3.83;;
15216;SDS011;7711;46.634;14.318;2022-09-01T09:48:06;4.40;;;4.05;;
15216;SDS011;7711;46.634;14.318;2022-09-01T09:50:36;4.88;;;3.97;;
15216;SDS011;7711;46.634;14.318;2022-09-01T09:53:15;4.28;;;3.97;;
15216;SDS011;7711;46.634;14.318;2022-09-01T09:55:56;4.00;;;3.58;;
15216;SDS011;7711;46.634;14.318;2022-09-01T09:58:27;4.05;;;3.67;;
15216;SDS011;7711;46.634;14.318;2022-09-01T10:01:02;5.75;;;3.58;;
15216;SDS011;7711;46.634;14.318;2022-09-01T10:03:33;4.03;;;3.70;;
15216;SDS011;7711;46.634;14.318;2022-09-01T10:06:03;4.13;;;3.80;;
15216;SDS011;7711;46.634;14.318;2022-09-01T10:08:39;4.03;;;3.63;;
15216;SDS011;7711;46.634;14.318;2022-09-01T10:11:11;3.60;;;3.30;;
15216;SDS011;7711;46.634;14.318;2022-09-01T10:13:53;4.47;;;4.07;;
15216;SDS011;7711;46.634;14.318;2022-09-01T10:16:22;3.83;;;3.53;;
15216;SDS011;7711;46.634;14.318;2022-09-01T10:18:54;4.03;;;3.63;;
15216;SDS011;7711;46.634;14.318;2022-09-01T10:21:29;5.60;;;3.90;;
15216;SDS011;7711;46.634;14.318;2022-09-01T10:24:02;3.75;;;3.45;;
15216;SDS011;7711;46.634;14.318;2022-09-01T10:26:38;3.67;;;3.30;;
15216;SDS011;7711;46.634;14.318;2022-09-01T10:29:11;4.18;;;3.78;;
15216;SDS011;7711;46.634;14.318;2022-09-01T10:31:40;3.60;;;3.30;;
15216;SDS011;7711;46.634;14.318;2022-09-01T10:43:36;3.90;;;3.60;;
15216;SDS011;7711;46.634;14.318;2022-09-01T10:46:17;3.22;;;3.00;;
15216;SDS011;7711;46.634;14.318;2022-09-01T10:49:17;3.50;;;3.20;;
15216;SDS011;7711;46.634;14.318;2022-09-01T10:51:46;3.78;;;3.03;;
15216;SDS011;7711;46.634;14.318;2022-09-01T10:57:46;3.25;;;2.95;;
15216;SDS011;7711;46.634;14.318;2022-09-01T11:06:31;4.32;;;3.70;;
15216;SDS011;7711;46.634;14.318;2022-09-01T11:09:17;4.70;;;3.97;;
15216;SDS011;7711;46.634;14.318;2022-09-01T11:11:48;4.40;;;4.00;;
15216;SDS011;7711;46.634;14.318;2022-09-01T11:14:27;5.03;;;3.95;;
15216;SDS011;7711;46.634;14.318;2022-09-01T11:17:14;4.03;;;3.72;;
15216;SDS011;7711;46.634;14.318;2022-09-01T11:19:43;4.07;;;3.70;;
15216;SDS011;7711;46.634;14.318;2022-09-01T11:22:21;4.60;;;4.15;;
15216;SDS011;7711;46.634;14.318;2022-09-01T11:25:04;4.15;;;3.83;;
15216;SDS011;7711;46.634;14.318;2022-09-01T11:30:35;4.47;;;3.80;;
15216;SDS011;7711;46.634;14.318;2022-09-01T11:33:26;3.95;;;3.65;;
15216;SDS011;7711;46.634;14.318;2022-09-01T11:35:58;4.15;;;3.58;;
15216;SDS011;7711;46.634;14.318;2022-09-01T11:38:28;3.97;;;3.63;;
15216;SDS011;7711;46.634;14.318;2022-09-01T11:41:03;3.75;;;3.42;;
15216;SDS011;7711;46.634;14.318;2022-09-01T11:43:30;5.07;;;3.90;;
15216;SDS011;7711;46.634;14.318;2022-09-01T11:46:01;4.43;;;3.95;;
15216;SDS011;7711;46.634;14.318;2022-09-01T11:48:45;3.80;;;3.40;;
15216;SDS011;7711;46.634;14.318;2022-09-01T11:51:13;3.95;;;3.55;;
15216;SDS011;7711;46.634;14.318;2022-09-01T11:53:41;3.97;;;3.58;;
15216;SDS011;7711;46.634;14.318;2022-09-01T11:56:14;7.25;;;3.55;;
15216;SDS011;7711;46.634;14.318;2022-09-01T11:58:44;3.83;;;3.47;;
15216;SDS011;7711;46.634;14.318;2022-09-01T12:01:13;5.30;;;3.42;;
15216;SDS011;7711;46.634;14.318;2022-09-01T12:03:43;6.00;;;3.35;;
15216;SDS011;7711;46.634;14.318;2022-09-01T12:06:18;3.30;;;3.00;;
15216;SDS011;7711;46.634;14.318;2022-09-01T12:08:51;3.58;;;3.28;;
15216;SDS011;7711;46.634;14.318;2022-09-01T12:11:21;3.60;;;3.30;;
15216;SDS011;7711;46.634;14.318;2022-09-01T12:13:55;4.38;;;3.50;;
15216;SDS011;7711;46.634;14.318;2022-09-01T12:16:24;3.95;;;3.58;;
15216;SDS011;7711;46.634;14.318;2022-09-01T12:18:53;4.28;;;3.88;;
15216;SDS011;7711;46.634;14.318;2022-09-01T12:21:25;3.75;;;3.45;;
15216;SDS011;7711;46.634;14.318;2022-09-01T12:23:54;3.92;;;3.53;;
15216;SDS011;7711;46.634;14.318;2022-09-01T12:26:37;5.22;;;3.55;;
15216;SDS011;7711;46.634;14.318;2022-09-01T12:29:04;3.55;;;3.25;;
15216;SDS011;7711;46.634;14.318;2022-09-01T12:31:32;3.75;;;3.45;;
15216;SDS011;7711;46.634;14.318;2022-09-01T12:33:59;3.65;;;3.35;;
15216;SDS011;7711;46.634;14.318;2022-09-01T12:36:30;5.10;;;3.50;;
15216;SDS011;7711;46.634;14.318;2022-09-01T12:41:46;3.92;;;3.63;;
15216;SDS011;7711;46.634;14.318;2022-09-01T12:44:26;4.72;;;3.78;;
15216;SDS011;7711;46.634;14.318;2022-09-01T12:46:56;4.10;;;3.80;;
15216;SDS011;7711;46.634;14.318;2022-09-01T12:49:25;4.68;;;3.65;;
15216;SDS011;7711;46.634;14.318;2022-09-01T12:52:16;3.78;;;3.42;;
15216;SDS011;7711;46.634;14.318;2022-09-01T12:54:50;4.45;;;3.60;;
15216;SDS011;7711;46.634;14.318;2022-09-01T12:57:23;4.13;;;3.72;;
15216;SDS011;7711;46.634;14.318;2022-09-01T13:00:12;4.65;;;4.00;;
15216;SDS011;7711;46.634;14.318;2022-09-01T13:02:43;4.28;;;3.72;;
15216;SDS011;7711;46.634;14.318;2022-09-01T13:05:19;5.53;;;4.20;;
15216;SDS011;7711;46.634;14.318;2022-09-01T13:07:53;4.45;;;4.05;;
15216;SDS011;7711;46.634;14.318;2022-09-01T13:10:22;4.60;;;4.20;;
15216;SDS011;7711;46.634;14.318;2022-09-01T13:12:52;4.28;;;3.78;;
15216;SDS011;7711;46.634;14.318;2022-09-01T13:15:19;4.30;;;3.90;;
15216;SDS011;7711;46.634;14.318;2022-09-01T13:17:47;4.30;;;3.90;;
15216;SDS011;7711;46.634;14.318;2022-09-01T13:20:14;4.80;;;4.30;;
15216;SDS011;7711;46.634;14.318;2022-09-01T13:22:41;6.10;;;4.32;;
15216;SDS011;7711;46.634;14.318;2022-09-01T13:25:10;4.53;;;4.13;;
15216;SDS011;7711;46.634;14.318;2022-09-01T13:27:37;6.38;;;3.78;;
15216;SDS011;7711;46.634;14.318;2022-09-01T13:30:08;4.38;;;3.97;;
15216;SDS011;7711;46.634;14.318;2022-09-01T13:32:36;4.65;;;4.15;;
15216;SDS011;7711;46.634;14.318;2022-09-01T13:35:04;4.50;;;4.03;;
15216;SDS011;7711;46.634;14.318;2022-09-01T13:37:31;5.60;;;3.90;;
15216;SDS011;7711;46.634;14.318;2022-09-01T13:39:59;4.93;;;4.35;;
15216;SDS011;7711;46.634;14.318;2022-09-01T13:42:28;4.38;;;4.03;;
15216;SDS011;7711;46.634;14.318;2022-09-01T13:44:55;5.10;;;4.22;;
15216;SDS011;7711;46.634;14.318;2022-09-01T13:47:22;5.63;;;4.28;;
15216;SDS011;7711;46.634;14.318;2022-09-01T13:49:49;5.15;;;4.20;;
15216;SDS011;7711;46.634;14.318;2022-09-01T13:52:16;4.38;;;3.97;;
15216;SDS011;7711;46.634;14.318;2022-09-01T13:54:43;4.78;;;4.20;;
15216;SDS011;7711;46.634;14.318;2022-09-01T13:57:11;4.47;;;4.07;;
15216;SDS011;7711;46.634;14.318;2022-09-01T13:59:41;5.15;;;4.15;;
15216;SDS011;7711;46.634;14.318;2022-09-01T14:02:09;4.80;;;4.20;;
15216;SDS011;7711;46.634;14.318;2022-09-01T14:04:36;5.13;;;4.43;;
15216;SDS011;7711;46.634;14.318;2022-09-01T14:07:03;4.28;;;3.88;;
15216;SDS011;7711;46.634;14.318;2022-09-01T14:09:30;4.38;;;3.97;;
15216;SDS011;7711;46.634;14.318;2022-09-01T14:11:57;4.20;;;3.80;;
15216;SDS011;7711;46.634;14.318;2022-09-01T14:14:24;4.82;;;4.20;;
15216;SDS011;7711;46.634;14.318;2022-09-01T14:16:53;4.38;;;3.85;;
15216;SDS011;7711;46.634;14.318;2022-09-01T14:19:20;3.85;;;3.55;;
15216;SDS011;7711;46.634;14.318;2022-09-01T14:21:48;6.50;;;3.70;;
15216;SDS011;7711;46.634;14.318;2022-09-01T14:24:15;3.88;;;3.50;;
15216;SDS011;7711;46.634;14.318;2022-09-01T14:26:44;4.55;;;3.80;;
15216;SDS011;7711;46.634;14.318;2022-09-01T14:29:11;6.32;;;3.72;;
15216;SDS011;7711;46.634;14.318;2022-09-01T14:31:38;3.90;;;3.60;;
15216;SDS011;7711;46.634;14.318;2022-09-01T14:34:08;5.88;;;4.10;;
15216;SDS011;7711;46.634;14.318;2022-09-01T14:36:36;5.68;;;3.80;;
15216;SDS011;7711;46.634;14.318;2022-09-01T14:39:03;4.65;;;4.25;;
15216;SDS011;7711;46.634;14.318;2022-09-01T14:41:30;4.25;;;3.65;;
15216;SDS011;7711;46.634;14.318;2022-09-01T14:43:57;4.18;;;3.70;;
15216;SDS011;7711;46.634;14.318;2022-09-01T14:46:26;4.43;;;3.80;;
15216;SDS011;7711;46.634;14.318;2022-09-01T14:48:54;4.57;;;3.67;;
15216;SDS011;7711;46.634;14.318;2022-09-01T14:51:24;7.60;;;4.43;;
15216;SDS011;7711;46.634;14.318;2022-09-01T14:53:52;7.68;;;3.80;;
15216;SDS011;7711;46.634;14.318;2022-09-01T14:56:20;7.47;;;4.63;;
15216;SDS011;7711;46.634;14.318;2022-09-01T14:58:48;6.40;;;3.75;;
15216;SDS011;7711;46.634;14.318;2022-09-01T15:01:17;4.45;;;3.97;;
15216;SDS011;7711;46.634;14.318;2022-09-01T15:03:47;7.55;;;4.28;;
15216;SDS011;7711;46.634;14.318;2022-09-01T15:06:14;5.22;;;4.05;;
15216;SDS011;7711;46.634;14.318;2022-09-01T15:08:44;6.45;;;4.15;;
15216;SDS011;7711;46.634;14.318;2022-09-01T15:11:14;13.48;;;5.68;;
15216;SDS011;7711;46.634;14.318;2022-09-01T15:13:43;11.35;;;5.20;;
15216;SDS011;7711;46.634;14.318;2022-09-01T15:16:12;4.47;;;4.03;;
15216;SDS011;7711;46.634;14.318;2022-09-01T15:18:40;4.07;;;3.53;;
15216;SDS011;7711;46.634;14.318;2022-09-01T15:21:07;4.22;;;3.28;;
15216;SDS011;7711;46.634;14.318;2022-09-01T15:23:44;15.73;;;6.53;;
15216;SDS011;7711;46.634;14.318;2022-09-01T15:26:13;9.43;;;5.03;;
15216;SDS011;7711;46.634;14.318;2022-09-01T15:28:41;13.25;;;6.30;;
15216;SDS011;7711;46.634;14.318;2022-09-01T15:31:08;4.07;;;3.65;;
15216;SDS011;7711;46.634;14.318;2022-09-01T15:33:36;6.97;;;3.80;;